createdAt,value
2022-08-16T00:03:47.205Z,0.00
2022-08-16T00:08:47.137Z,0.00
2022-08-16T00:13:53.843Z,0.00
2022-08-16T00:18:47.995Z,0.00
2022-08-16T00:23:46.955Z,0.00
2022-08-16T00:28:46.874Z,0.00
2022-08-16T00:33:50.174Z,0.00
2022-08-16T00:38:46.738Z,0.00
2022-08-16T00:43:46.668Z,0.00
2022-08-16T00:48:46.598Z,0.00
2022-08-16T00:53:46.549Z,0.00
2022-08-16T00:58:46.458Z,0.00
2022-08-16T01:03:46.399Z,0.00
2022-08-16T01:08:46.337Z,0.00
2022-08-16T01:13:46.282Z,0.00
2022-08-16T01:18:46.210Z,0.00
2022-08-16T01:24:00.790Z,0.00
2022-08-16T01:28:47.082Z,0.00
2022-08-16T01:33:46.002Z,0.00
2022-08-16T01:38:49.227Z,0.00
2022-08-16T01:43:46.863Z,0.00
2022-08-16T01:48:46.803Z,0.00
2022-08-16T01:53:55.209Z,0.00
2022-08-16T01:58:48.081Z,0.00
2022-08-16T02:03:45.604Z,0.00
2022-08-16T02:08:46.537Z,0.00
2022-08-16T02:13:45.485Z,0.00
2022-08-16T02:18:46.405Z,0.00
2022-08-16T02:23:45.344Z,0.00
2022-08-16T02:28:47.107Z,0.00
2022-08-16T02:33:50.701Z,0.00
2022-08-16T02:38:46.155Z,0.00
2022-08-16T02:43:45.108Z,0.00
2022-08-16T02:48:49.104Z,0.00
2022-08-16T02:53:45.076Z,0.00
2022-08-16T02:58:45.002Z,0.00
2022-08-16T03:04:29.993Z,0.00
2022-08-16T03:08:52.026Z,0.00
2022-08-16T03:13:45.701Z,4.00
2022-08-16T03:18:44.667Z,8.00
2022-08-16T03:23:44.626Z,12.00
2022-08-16T03:28:44.494Z,20.00
2022-08-16T03:33:44.442Z,48.00
2022-08-16T03:38:44.383Z,100.00
2022-08-16T03:43:51.241Z,200.00
2022-08-16T03:48:45.569Z,344.00
2022-08-16T03:53:44.179Z,560.00
2022-08-16T03:58:45.144Z,856.00
2022-08-16T04:03:44.251Z,1224.00
2022-08-16T04:08:43.983Z,1660.00
2022-08-16T04:14:01.748Z,2152.00
2022-08-16T04:18:44.896Z,2652.00
2022-08-16T04:23:43.830Z,2972.00
2022-08-16T04:28:53.368Z,3280.00
2022-08-16T04:33:50.591Z,4580.00
2022-08-16T04:38:44.617Z,5296.00
2022-08-16T04:43:43.871Z,5868.00
2022-08-16T04:48:43.521Z,7724.00
2022-08-16T04:53:43.408Z,31680.00
2022-08-16T04:58:45.484Z,36352.00
2022-08-16T05:03:59.705Z,33472.00
2022-08-16T05:08:47.127Z,38496.00
2022-08-16T05:13:43.132Z,47232.00
2022-08-16T05:18:43.075Z,50432.00
2022-08-16T05:23:51.467Z,49952.00
2022-08-16T05:28:43.945Z,43072.00
2022-08-16T05:33:42.886Z,46688.00
2022-08-16T05:38:42.827Z,47776.00
2022-08-16T05:43:43.692Z,56576.00
2022-08-16T05:48:42.692Z,68128.00
2022-08-16T05:53:42.632Z,70784.00
2022-08-16T05:58:42.562Z,60224.00
2022-08-16T06:03:42.511Z,67488.00
2022-08-16T06:08:45.017Z,73408.00
2022-08-16T06:13:42.480Z,78944.00
2022-08-16T06:18:42.326Z,73504.00
2022-08-16T06:23:42.278Z,83328.00
2022-08-16T06:28:42.211Z,79904.00
2022-08-16T06:33:44.731Z,76512.00
2022-08-16T06:38:55.728Z,75872.00
2022-08-16T06:43:43.311Z,81216.00
2022-08-16T06:48:42.918Z,80640.00
2022-08-16T06:53:41.931Z,82880.00
2022-08-16T06:58:41.868Z,81440.00
2022-08-16T07:03:55.346Z,81536.00
2022-08-16T07:08:42.989Z,84352.00
2022-08-16T07:14:23.814Z,81856.00
2022-08-16T07:18:59.317Z,80448.00
2022-08-16T07:23:42.586Z,81152.00
2022-08-16T07:28:41.536Z,84960.00
2022-08-16T07:33:52.156Z,81728.00
2022-08-16T07:38:42.404Z,81504.00
2022-08-16T07:43:41.636Z,59296.00
2022-08-16T07:48:41.297Z,87904.00
2022-08-16T07:53:43.711Z,77664.00
2022-08-16T07:58:41.188Z,90720.00
2022-08-16T08:03:44.953Z,86816.00
2022-08-16T08:08:50.583Z,81632.00
2022-08-16T08:13:43.050Z,37568.00
2022-08-16T08:18:41.020Z,32800.00
2022-08-16T08:23:42.518Z,33664.00
2022-08-16T08:28:40.824Z,34848.00
2022-08-16T08:33:43.762Z,36640.00
2022-08-16T08:38:44.888Z,37280.00
2022-08-16T08:43:41.898Z,38272.00
2022-08-16T08:48:43.934Z,68768.00
2022-08-16T08:53:40.546Z,46816.00
2022-08-16T08:58:40.467Z,37824.00
2022-08-16T09:03:41.419Z,33856.00
2022-08-16T09:08:40.409Z,10712.00
2022-08-16T09:13:47.362Z,10188.00
2022-08-16T09:18:41.274Z,10056.00
2022-08-16T09:23:40.264Z,9940.00
2022-08-16T09:29:15.089Z,9816.00
2022-08-16T09:33:41.049Z,9688.00
2022-08-16T09:38:40.976Z,9508.00
2022-08-16T09:44:00.689Z,9412.00
2022-08-16T09:48:44.613Z,9332.00
2022-08-16T09:53:40.827Z,9292.00
2022-08-16T09:59:05.590Z,9284.00
2022-08-16T10:04:02.313Z,9508.00
2022-08-16T10:09:04.341Z,9332.00
2022-08-16T10:13:40.700Z,9964.00
2022-08-16T10:18:56.629Z,10204.00
2022-08-16T10:23:40.434Z,8336.00
2022-08-16T10:28:39.923Z,12180.00
2022-08-16T10:33:40.248Z,12552.00
2022-08-16T10:38:39.245Z,11288.00
2022-08-16T10:43:39.175Z,11892.00
2022-08-16T10:48:39.133Z,10708.00
2022-08-16T10:53:40.035Z,10320.00
2022-08-16T10:58:38.989Z,11156.00
2022-08-16T11:03:42.469Z,10784.00
2022-08-16T11:08:43.261Z,10584.00
2022-08-16T11:18:48.672Z,11932.00
2022-08-16T11:23:39.639Z,9924.00
2022-08-16T11:33:54.968Z,8156.00
2022-08-16T11:38:51.925Z,7604.00
2022-08-16T11:43:39.387Z,7536.00
2022-08-16T11:48:38.342Z,7452.00
2022-08-16T11:53:38.276Z,7476.00
2022-08-16T11:58:38.214Z,7516.00
2022-08-16T12:03:38.240Z,7216.00
2022-08-16T12:08:38.063Z,7116.00
2022-08-16T12:13:38.024Z,7068.00
2022-08-16T12:18:37.938Z,8392.00
2022-08-16T12:23:37.900Z,8144.00
2022-08-16T12:28:55.203Z,7700.00
2022-08-16T12:33:44.554Z,5900.00
2022-08-16T12:38:47.921Z,6080.00
2022-08-16T12:43:42.281Z,7432.00
2022-08-16T12:48:38.554Z,7784.00
2022-08-16T12:53:39.904Z,7700.00
2022-08-16T12:58:49.917Z,7412.00
2022-08-16T13:03:40.546Z,7740.00
2022-08-16T13:08:37.316Z,7524.00
2022-08-16T13:13:37.248Z,7232.00
2022-08-16T13:18:37.205Z,7004.00
2022-08-16T13:23:43.619Z,6568.00
2022-08-16T13:28:38.077Z,6864.00
2022-08-16T13:33:37.053Z,7996.00
2022-08-16T13:38:37.723Z,6772.00
2022-08-16T13:43:36.895Z,6100.00
2022-08-16T13:48:42.598Z,7132.00
2022-08-16T13:53:37.756Z,6940.00
2022-08-16T13:58:48.176Z,8860.00
2022-08-16T14:03:39.297Z,9640.00
2022-08-16T14:08:36.540Z,8184.00
2022-08-16T14:13:37.480Z,7400.00
2022-08-16T14:18:36.418Z,6712.00
2022-08-16T14:23:36.370Z,7240.00
2022-08-16T14:28:37.054Z,7684.00
2022-08-16T14:33:36.236Z,7412.00
2022-08-16T14:38:39.385Z,7268.00
2022-08-16T14:43:36.271Z,6948.00
2022-08-16T14:48:36.132Z,6600.00
2022-08-16T14:53:35.988Z,6220.00
2022-08-16T14:58:38.097Z,6096.00
2022-08-16T15:03:37.567Z,5992.00
2022-08-16T15:08:37.198Z,6176.00
2022-08-16T15:13:35.790Z,6136.00
2022-08-16T15:18:35.675Z,6172.00
2022-08-16T15:23:35.606Z,6112.00
2022-08-16T15:28:35.988Z,4896.00
2022-08-16T15:33:35.507Z,5540.00
2022-08-16T15:39:03.022Z,5540.00
2022-08-16T15:43:40.009Z,5180.00
2022-08-16T15:48:35.280Z,4444.00
2022-08-16T15:53:37.585Z,4616.00
2022-08-16T15:58:38.461Z,4348.00
2022-08-16T16:03:35.112Z,4508.00
2022-08-16T16:08:35.074Z,4812.00
2022-08-16T16:13:34.974Z,4544.00
2022-08-16T16:18:34.906Z,4436.00
2022-08-16T16:23:34.830Z,4348.00
2022-08-16T16:28:46.032Z,4252.00
2022-08-16T16:33:35.887Z,4260.00
2022-08-16T16:38:35.070Z,4224.00
2022-08-16T16:43:34.598Z,3912.00
2022-08-16T16:48:35.441Z,3688.00
2022-08-16T16:53:37.545Z,3468.00
2022-08-16T16:58:36.650Z,3228.00
2022-08-16T17:03:34.324Z,3004.00
2022-08-16T17:08:34.265Z,2884.00
2022-08-16T17:13:34.206Z,2644.00
2022-08-16T17:19:15.317Z,2392.00
2022-08-16T17:23:57.584Z,2204.00
2022-08-16T17:28:59.513Z,1944.00
2022-08-16T17:33:37.034Z,1764.00
2022-08-16T17:38:43.811Z,1604.00
2022-08-16T17:43:34.874Z,1420.00
2022-08-16T17:48:33.789Z,1248.00
2022-08-16T17:53:33.724Z,1064.00
2022-08-16T17:58:33.716Z,888.00
2022-08-16T18:04:02.555Z,716.00
2022-08-16T18:08:34.568Z,552.00
2022-08-16T18:13:33.448Z,404.00
2022-08-16T18:18:33.400Z,284.00
2022-08-16T18:23:33.323Z,188.00
2022-08-16T18:28:33.325Z,104.00
2022-08-16T18:33:33.224Z,56.00
2022-08-16T18:38:36.338Z,28.00
2022-08-16T18:44:22.482Z,8.00
2022-08-16T18:48:34.015Z,8.00
2022-08-16T18:53:32.925Z,0.00
2022-08-16T18:58:32.906Z,0.00
2022-08-16T19:03:32.807Z,0.00
2022-08-16T19:08:32.719Z,0.00
2022-08-16T19:13:32.652Z,0.00
2022-08-16T19:18:36.547Z,0.00
2022-08-16T19:23:32.541Z,0.00
2022-08-16T19:28:49.620Z,0.00
2022-08-16T19:33:33.393Z,0.00
2022-08-16T19:38:32.336Z,0.00
2022-08-16T19:43:32.525Z,0.00
2022-08-16T19:48:32.218Z,0.00
2022-08-16T19:53:32.136Z,0.00
2022-08-16T19:58:32.114Z,0.00
2022-08-16T20:03:32.075Z,0.00
2022-08-16T20:08:31.949Z,0.00
2022-08-16T20:13:31.869Z,0.00
2022-08-16T20:18:31.949Z,0.00
2022-08-16T20:23:31.758Z,0.00
2022-08-16T20:28:40.642Z,0.00
2022-08-16T20:33:32.657Z,0.00
2022-08-16T20:38:31.663Z,0.00
2022-08-16T20:43:31.497Z,0.00
2022-08-16T20:48:31.666Z,0.00
2022-08-16T20:53:31.375Z,0.00
2022-08-16T20:58:31.287Z,0.00
2022-08-16T21:03:31.235Z,0.00
2022-08-16T21:08:52.754Z,0.00
2022-08-16T21:13:32.117Z,0.00
2022-08-16T21:18:31.041Z,0.00
2022-08-16T21:23:30.981Z,0.00
2022-08-16T21:28:40.758Z,0.00
2022-08-16T21:33:31.856Z,0.00
2022-08-16T21:38:31.290Z,0.00
2022-08-16T21:43:30.716Z,0.00
2022-08-16T21:48:33.772Z,0.00
2022-08-16T21:53:31.754Z,0.00
2022-08-16T21:58:30.518Z,0.00
2022-08-16T22:03:30.457Z,0.00
2022-08-16T22:08:30.408Z,0.00
2022-08-16T22:13:30.384Z,0.00
2022-08-16T22:18:30.259Z,0.00
2022-08-16T22:23:30.190Z,0.00
2022-08-16T22:28:30.120Z,0.00
2022-08-16T22:33:30.072Z,0.00
2022-08-16T22:38:55.084Z,0.00
2022-08-16T22:43:30.935Z,0.00
2022-08-16T22:48:29.845Z,0.00
2022-08-16T22:53:29.804Z,0.00
2022-08-16T22:58:36.190Z,0.00
2022-08-16T23:03:30.656Z,0.00
2022-08-16T23:08:38.467Z,0.00
2022-08-16T23:13:30.526Z,0.00
2022-08-16T23:18:29.449Z,0.00
2022-08-16T23:23:29.389Z,0.00
2022-08-16T23:28:29.328Z,0.00
2022-08-16T23:33:29.259Z,0.00
2022-08-16T23:38:37.794Z,0.00
2022-08-16T23:43:30.152Z,0.00
2022-08-16T23:48:29.084Z,0.00
2022-08-16T23:53:29.022Z,0.00
2022-08-16T23:58:28.971Z,0.00
